Time;durP1;ratioP1;P1;durP2;ratioP2;P2;SDS_P1;SDS_P2;PMS_P1;PMS_P2;Temp;Humidity;BMP_temperature;BMP_pressure;BME280_temperature;BME280_humidity;BME280_pressure;Samples;Min_cycle;Max_cycle;Signal;HPM_P1;HPM_P2
2021/06/01 00:01:39;;;;;;;16.05;6.80;;;;;;;10.66;87.83;102152.03;4971311;28;20049;-71
2021/06/01 00:04:08;;;;;;;11.03;6.20;;;;;;;10.57;87.52;102142.22;4968222;28;20121;-72
2021/06/01 00:06:34;;;;;;;12.00;6.32;;;;;;;10.50;88.16;102138.38;4973139;28;20463;-71
2021/06/01 00:09:02;;;;;;;11.55;6.38;;;;;;;10.44;88.14;102142.28;4958800;28;20066;-72
2021/06/01 00:11:28;;;;;;;14.02;5.95;;;;;;;10.39;88.53;102135.69;4970494;28;20038;-72
2021/06/01 00:13:53;;;;;;;14.73;6.63;;;;;;;10.37;88.10;102138.41;4970528;28;20038;-73
2021/06/01 00:16:21;;;;;;;14.48;6.32;;;;;;;10.37;88.46;102142.81;4974708;28;20459;-73
2021/06/01 00:18:47;;;;;;;13.40;6.88;;;;;;;10.30;89.39;102140.66;4956239;28;20145;-74
2021/06/01 00:21:13;;;;;;;21.70;6.03;;;;;;;10.21;89.14;102138.66;4962963;28;20551;-73
2021/06/01 00:23:39;;;;;;;11.45;6.05;;;;;;;10.21;89.37;102143.91;4969980;28;20034;-72
2021/06/01 00:26:07;;;;;;;11.27;6.90;;;;;;;10.23;89.64;102144.63;4965893;28;20043;-73
2021/06/01 00:28:34;;;;;;;10.25;6.97;;;;;;;10.24;89.45;102148.06;4968028;28;20042;-72
2021/06/01 00:31:01;;;;;;;12.00;6.50;;;;;;;10.19;89.34;102144.94;4950382;28;20034;-74
2021/06/01 00:33:29;;;;;;;10.85;6.68;;;;;;;10.14;89.59;102143.50;4967324;28;20043;-73
2021/06/01 00:35:55;;;;;;;15.88;6.70;;;;;;;10.12;89.53;102139.31;4951296;28;20080;-73
2021/06/01 00:38:21;;;;;;;11.18;6.32;;;;;;;10.13;89.79;102136.59;4965554;28;20046;-73
2021/06/01 00:40:47;;;;;;;9.45;6.95;;;;;;;10.12;89.46;102136.69;4983516;28;20443;-74
2021/06/01 00:43:13;;;;;;;10.93;6.50;;;;;;;10.15;89.54;102144.31;4970265;28;20034;-73
2021/06/01 00:45:40;;;;;;;14.13;7.03;;;;;;;10.15;89.45;102133.81;4950213;28;20034;-75
2021/06/01 00:48:06;;;;;;;15.05;6.80;;;;;;;10.16;89.52;102130.28;4947392;28;20540;-75
2021/06/01 00:50:32;;;;;;;12.35;7.13;;;;;;;10.18;89.18;102135.41;4987101;28;20129;-75
2021/06/01 00:52:59;;;;;;;9.50;6.60;;;;;;;10.18;89.26;102136.25;4947711;28;20035;-75
2021/06/01 00:55:25;;;;;;;10.35;7.15;;;;;;;10.14;89.31;102135.63;4947164;28;20467;-75
2021/06/01 00:57:51;;;;;;;11.52;7.10;;;;;;;10.07;89.41;102134.38;5002311;28;20065;-75
2021/06/01 01:02:45;;;;;;;16.02;7.13;;;;;;;9.97;89.17;102129.91;4983913;28;20030;-74
2021/06/01 01:05:12;;;;;;;14.30;6.93;;;;;;;9.91;89.15;102137.25;4986605;28;20054;-75
2021/06/01 01:07:46;;;;;;;14.23;7.72;;;;;;;9.85;90.05;102139.47;4987895;28;20069;-77
2021/06/01 01:10:14;;;;;;;18.63;7.13;;;;;;;9.82;91.35;102135.28;4990307;28;20069;-75
2021/06/01 01:12:51;;;;;;;12.25;6.88;;;;;;;9.86;90.20;102128.06;4986858;28;20125;-75
2021/06/01 01:15:20;;;;;;;12.77;7.68;;;;;;;9.84;90.45;102133.38;4957840;28;20081;-75
2021/06/01 01:17:49;;;;;;;13.40;6.82;;;;;;;9.79;91.43;102132.88;4981990;28;20034;-74
2021/06/01 01:20:33;;;;;;;13.23;7.03;;;;;;;9.77;90.93;102139.16;4979347;28;20030;-75
2021/06/01 01:23:02;;;;;;;16.85;7.38;;;;;;;9.71;91.47;102141.25;4974968;28;20038;-73
2021/06/01 01:25:33;;;;;;;16.83;7.30;;;;;;;9.67;91.48;102137.19;4997777;28;20034;-75
2021/06/01 01:28:03;;;;;;;13.98;7.60;;;;;;;9.66;91.87;102138.16;4982683;28;20100;-74
2021/06/01 01:30:50;;;;;;;13.32;7.35;;;;;;;9.65;92.25;102140.88;4979423;28;20046;-74
2021/06/01 01:33:30;;;;;;;10.60;7.35;;;;;;;9.67;91.70;102137.19;4986759;28;20102;-74
2021/06/01 01:36:00;;;;;;;11.15;7.03;;;;;;;9.72;91.31;102136.88;4979937;28;20030;-75
2021/06/01 01:38:27;;;;;;;9.43;7.25;;;;;;;9.65;91.86;102135.63;4958716;28;20118;-75
2021/06/01 01:40:57;;;;;;;15.70;7.70;;;;;;;9.62;91.17;102143.69;4986151;28;20034;-74
2021/06/01 01:43:29;;;;;;;16.00;8.20;;;;;;;9.51;91.52;102145.28;4978461;28;20077;-75
2021/06/01 01:51:24;;;;;;;13.88;7.65;;;;;;;9.55;91.28;102138.88;5024754;28;20041;-75
2021/06/01 01:53:51;;;;;;;9.98;7.07;;;;;;;9.59;91.27;102136.03;5033887;28;20025;-74
2021/06/01 01:56:20;;;;;;;12.95;7.03;;;;;;;9.63;91.26;102137.53;5029720;28;20048;-75
2021/06/01 01:58:50;;;;;;;13.60;7.40;;;;;;;9.62;91.60;102136.66;5043154;28;20075;-75
2021/06/01 02:01:17;;;;;;;13.68;7.70;;;;;;;9.68;92.06;102136.25;5013220;28;20033;-75
2021/06/01 02:03:43;;;;;;;13.57;7.43;;;;;;;9.66;92.17;102132.03;5007866;28;20140;-76
2021/06/01 02:06:10;;;;;;;15.60;7.40;;;;;;;9.59;92.02;102129.03;5039246;28;20099;-76
2021/06/01 02:08:40;;;;;;;13.00;7.20;;;;;;;9.52;92.88;102123.38;5028613;28;20032;-74
2021/06/01 02:11:07;;;;;;;9.63;7.47;;;;;;;9.48;93.46;102124.53;5029521;28;20388;-75
2021/06/01 02:13:44;;;;;;;11.68;7.30;;;;;;;9.49;93.67;102126.22;5032477;28;20116;-76
2021/06/01 02:16:10;;;;;;;14.02;7.85;;;;;;;9.45;94.10;102126.50;5020485;28;20043;-76
2021/06/01 02:18:35;;;;;;;14.65;7.85;;;;;;;9.42;93.68;102124.09;5027699;28;20029;-76
2021/06/01 02:21:05;;;;;;;11.50;7.30;;;;;;;9.42;94.17;102131.94;5026794;28;20487;-76
2021/06/01 02:23:48;;;;;;;13.63;7.88;;;;;;;9.43;94.28;102129.22;5005396;28;20150;-77
2021/06/01 02:26:33;;;;;;;16.42;8.63;;;;;;;9.38;93.97;102130.50;4989216;28;20511;-76
2021/06/01 02:29:06;;;;;;;12.82;8.30;;;;;;;9.35;94.67;102124.53;5039077;28;20375;-75
2021/06/01 02:31:37;;;;;;;10.57;8.00;;;;;;;9.35;95.44;102129.75;5025733;28;20556;-77
2021/06/01 02:34:06;;;;;;;18.27;8.60;;;;;;;9.29;95.12;102129.34;5038182;28;20056;-76
2021/06/01 02:36:32;;;;;;;13.98;7.78;;;;;;;9.28;94.96;102136.34;5025203;28;20400;-75
2021/06/01 02:38:59;;;;;;;13.60;8.00;;;;;;;9.26;95.52;102129.56;5020435;28;20037;-75
2021/06/01 02:41:24;;;;;;;18.90;9.02;;;;;;;9.21;95.78;102121.16;5000344;28;20037;-74
2021/06/01 02:43:51;;;;;;;13.18;9.30;;;;;;;9.22;96.57;102121.06;5031917;28;20457;-75
2021/06/01 02:46:17;;;;;;;15.15;9.40;;;;;;;9.22;96.59;102128.91;5023928;28;20426;-74
2021/06/01 02:48:44;;;;;;;12.55;8.77;;;;;;;9.20;96.30;102135.22;5011455;28;20034;-74
2021/06/01 02:51:17;;;;;;;15.50;8.45;;;;;;;9.21;96.23;102127.25;5030429;28;20049;-74
2021/06/01 02:53:49;;;;;;;14.48;8.93;;;;;;;9.15;96.19;102131.13;5041715;28;20076;-74
2021/06/01 02:56:16;;;;;;;18.73;9.77;;;;;;;9.13;95.85;102121.69;5021605;28;20408;-74
2021/06/01 02:58:43;;;;;;;20.65;9.55;;;;;;;9.10;96.27;102120.13;5017850;28;20390;-73
2021/06/01 03:01:24;;;;;;;15.73;9.68;;;;;;;9.12;95.81;102118.22;5009264;28;20037;-76
2021/06/01 03:03:52;;;;;;;16.58;9.95;;;;;;;9.16;95.67;102122.31;4996627;28;20375;-74
2021/06/01 03:06:20;;;;;;;13.65;8.68;;;;;;;9.15;95.61;102106.72;5019211;28;20065;-74
2021/06/01 03:08:46;;;;;;;18.30;10.35;;;;;;;9.22;95.24;102112.38;5036298;28;20030;-74
2021/06/01 03:11:17;;;;;;;14.82;9.07;;;;;;;9.25;94.81;102114.78;5001281;28;20048;-74
2021/06/01 03:13:44;;;;;;;14.15;9.90;;;;;;;9.28;94.92;102115.41;4987064;28;20060;-75
2021/06/01 03:16:10;;;;;;;13.52;9.68;;;;;;;9.24;95.41;102118.34;5012817;28;20029;-75
2021/06/01 03:18:35;;;;;;;15.15;9.80;;;;;;;9.21;96.49;102118.53;5018174;28;20098;-75
2021/06/01 03:21:02;;;;;;;16.08;10.50;;;;;;;9.16;96.22;102119.69;5034234;28;20034;-74
2021/06/01 03:23:27;;;;;;;18.80;9.55;;;;;;;9.11;95.91;102113.09;5013126;28;20045;-74
2021/06/01 03:25:53;;;;;;;14.30;10.00;;;;;;;9.12;95.90;102120.84;5016485;28;20018;-74
2021/06/01 03:28:20;;;;;;;18.45;10.38;;;;;;;9.13;95.94;102112.03;4976306;28;20037;-76
2021/06/01 03:30:46;;;;;;;15.00;10.82;;;;;;;9.13;95.62;102108.59;5017220;28;20030;-76
2021/06/01 03:33:13;;;;;;;16.73;9.90;;;;;;;9.18;95.66;102105.69;4996468;28;20045;-75
2021/06/01 03:35:38;;;;;;;14.98;10.10;;;;;;;9.22;95.70;102099.28;5016928;28;20485;-75
2021/06/01 03:38:05;;;;;;;14.60;10.10;;;;;;;9.28;95.08;102099.69;4995845;28;20120;-74
2021/06/01 03:40:30;;;;;;;18.30;10.43;;;;;;;9.34;94.55;102106.28;4986702;28;20037;-75
2021/06/01 03:42:56;;;;;;;17.98;10.43;;;;;;;9.33;94.98;102097.59;4982651;28;20114;-75
2021/06/01 03:45:23;;;;;;;16.10;10.40;;;;;;;9.41;94.79;102101.47;5021694;28;20511;-74
2021/06/01 03:47:49;;;;;;;16.77;10.70;;;;;;;9.41;94.93;102096.25;5007717;28;20499;-74
2021/06/01 03:50:15;;;;;;;13.57;9.10;;;;;;;9.46;94.57;102102.00;5019941;28;20041;-76
2021/06/01 03:52:41;;;;;;;16.83;10.20;;;;;;;9.55;94.34;102096.16;4995142;28;20029;-74
2021/06/01 03:55:07;;;;;;;14.98;8.82;;;;;;;9.71;94.49;102099.34;5002050;28;20025;-74
2021/06/01 03:57:33;;;;;;;12.02;9.35;;;;;;;9.84;95.72;102095.88;5012469;28;20038;-74
2021/06/01 03:59:59;;;;;;;13.73;9.10;;;;;;;9.86;96.12;102100.06;5008159;28;20042;-73
2021/06/01 04:02:25;;;;;;;12.07;8.77;;;;;;;9.86;96.21;102093.97;5021074;28;20029;-74
2021/06/01 04:04:50;;;;;;;12.40;8.32;;;;;;;9.86;95.82;102091.34;5003340;28;20542;-75
2021/06/01 04:07:17;;;;;;;13.65;8.18;;;;;;;9.87;96.11;102099.13;5022987;28;20037;-74
2021/06/01 04:09:43;;;;;;;12.18;7.93;;;;;;;9.99;94.73;102093.94;5015894;28;20033;-74
2021/06/01 04:12:10;;;;;;;10.65;8.27;;;;;;;10.05;95.41;102096.13;4999291;28;20107;-73
2021/06/01 04:14:36;;;;;;;13.15;8.20;;;;;;;10.10;96.95;102089.59;4991548;28;20444;-74
2021/06/01 04:17:03;;;;;;;15.27;9.15;;;;;;;10.14;96.91;102091.06;5008956;28;20407;-74
2021/06/01 04:19:28;;;;;;;12.15;8.80;;;;;;;10.18;97.09;102088.22;4996547;28;20046;-75
2021/06/01 04:21:54;;;;;;;11.23;8.50;;;;;;;10.25;97.61;102092.06;5013900;28;20054;-77
2021/06/01 04:24:27;;;;;;;11.85;8.70;;;;;;;10.37;96.79;102096.44;5010571;28;20041;-75
2021/06/01 04:27:01;;;;;;;10.57;8.50;;;;;;;10.43;96.75;102103.84;5009093;28;20044;-74
2021/06/01 04:29:27;;;;;;;12.23;8.40;;;;;;;10.47;97.20;102101.84;5019065;28;20022;-74
2021/06/01 04:31:53;;;;;;;12.23;8.55;;;;;;;10.47;97.28;102100.09;5008636;28;20092;-75
2021/06/01 04:34:19;;;;;;;9.55;8.10;;;;;;;10.52;97.01;102095.31;5009063;28;20038;-74
2021/06/01 04:36:44;;;;;;;12.60;7.90;;;;;;;10.55;96.60;102096.03;5014512;28;20558;-74
2021/06/01 04:39:10;;;;;;;12.43;8.60;;;;;;;10.60;96.47;102097.38;4999691;28;20122;-74
2021/06/01 04:41:36;;;;;;;12.63;8.32;;;;;;;10.63;96.25;102089.28;4997994;28;20044;-74
2021/06/01 04:44:02;;;;;;;10.93;8.38;;;;;;;10.71;96.37;102091.34;4993689;28;20037;-74
2021/06/01 04:46:29;;;;;;;11.48;8.90;;;;;;;10.78;96.59;102078.59;5009726;28;20045;-75
2021/06/01 04:48:55;;;;;;;14.65;10.07;;;;;;;10.94;97.27;102088.78;5020682;28;20037;-74
2021/06/01 04:51:21;;;;;;;14.65;10.48;;;;;;;11.10;97.61;102087.50;5008601;28;20042;-74
2021/06/01 04:53:51;;;;;;;15.90;9.95;;;;;;;11.24;97.28;102082.97;5009206;28;20042;-77
2021/06/01 04:56:17;;;;;;;15.10;10.20;;;;;;;11.34;96.93;102085.72;5004985;28;20159;-74
2021/06/01 04:58:43;;;;;;;13.20;10.57;;;;;;;11.44;96.68;102095.41;4994482;28;20408;-73
2021/06/01 05:01:09;;;;;;;14.55;11.02;;;;;;;11.50;96.61;102094.91;5008821;28;20029;-76
2021/06/01 05:03:34;;;;;;;14.45;11.32;;;;;;;11.57;96.14;102092.66;5008825;28;20053;-74
2021/06/01 05:06:00;;;;;;;19.38;10.50;;;;;;;11.64;95.58;102104.38;4993338;28;20026;-73
2021/06/01 05:08:26;;;;;;;16.65;11.05;;;;;;;11.63;95.50;102105.31;5005559;28;20029;-75
2021/06/01 05:10:52;;;;;;;14.32;10.50;;;;;;;11.67;96.21;102106.75;5013227;28;20494;-73
2021/06/01 05:13:18;;;;;;;13.23;9.70;;;;;;;11.76;95.58;102107.00;5022480;28;20029;-75
2021/06/01 05:15:44;;;;;;;15.10;9.70;;;;;;;11.83;94.89;102101.13;5019104;28;20029;-74
2021/06/01 05:18:11;;;;;;;17.85;10.98;;;;;;;11.94;94.35;102104.72;5024760;28;20037;-75
2021/06/01 05:20:37;;;;;;;15.52;9.52;;;;;;;12.03;93.90;102106.63;5017881;28;20062;-74
2021/06/01 05:23:03;;;;;;;17.40;11.38;;;;;;;12.22;93.70;102098.06;5008370;28;20053;-73
2021/06/01 05:25:28;;;;;;;16.80;10.52;;;;;;;12.40;92.61;102104.47;5004549;28;20018;-77
2021/06/01 05:27:54;;;;;;;18.08;10.77;;;;;;;12.57;92.07;102095.19;4988355;28;20038;-74
2021/06/01 05:30:24;;;;;;;17.00;11.27;;;;;;;12.76;90.04;102106.84;5016631;28;20045;-75
2021/06/01 05:35:38;;;;;;;19.23;11.20;;;;;;;12.99;89.42;102103.09;5019975;28;20076;-74
2021/06/01 05:38:04;;;;;;;18.83;11.40;;;;;;;13.09;87.52;102094.44;5016304;28;20046;-74
2021/06/01 05:40:29;;;;;;;18.75;11.25;;;;;;;13.15;87.85;102096.56;4988608;28;20053;-75
2021/06/01 05:42:55;;;;;;;20.10;11.82;;;;;;;13.21;86.65;102090.78;5007742;28;20092;-74
2021/06/01 05:45:20;;;;;;;18.98;11.73;;;;;;;13.23;87.11;102080.94;5021614;28;20048;-74
2021/06/01 05:47:46;;;;;;;17.05;11.18;;;;;;;13.37;87.05;102091.16;5023127;28;20037;-75
2021/06/01 05:50:12;;;;;;;26.50;13.10;;;;;;;13.56;87.92;102094.81;5003831;28;20492;-75
2021/06/01 05:52:38;;;;;;;17.55;12.95;;;;;;;13.57;87.88;102085.97;5008264;28;20040;-75
2021/06/01 05:55:05;;;;;;;24.70;12.45;;;;;;;13.67;88.25;102088.63;5022954;28;20029;-75
2021/06/01 05:57:31;;;;;;;20.52;13.48;;;;;;;13.74;88.07;102092.41;5016894;28;20046;-74
2021/06/01 05:59:56;;;;;;;20.48;12.38;;;;;;;13.79;87.60;102096.31;5001202;28;20114;-74
2021/06/01 06:02:23;;;;;;;19.45;12.82;;;;;;;13.92;87.40;102098.69;5012690;28;20438;-74
2021/06/01 06:04:48;;;;;;;20.63;13.00;;;;;;;13.96;87.73;102096.63;5012273;28;20041;-74
2021/06/01 06:07:14;;;;;;;19.73;12.68;;;;;;;14.05;86.69;102100.25;5005718;28;20037;-73
2021/06/01 06:09:40;;;;;;;14.93;11.82;;;;;;;14.20;85.93;102098.88;4995792;28;20034;-74
2021/06/01 06:12:06;;;;;;;19.88;12.60;;;;;;;14.35;86.45;102097.53;5009232;28;20060;-72
2021/06/01 06:14:31;;;;;;;21.13;12.18;;;;;;;14.62;85.50;102100.44;5011753;28;20026;-73
2021/06/01 06:17:06;;;;;;;22.42;11.65;;;;;;;14.84;84.96;102096.66;4997125;28;20053;-73
2021/06/01 06:19:33;;;;;;;19.63;11.77;;;;;;;15.08;84.28;102104.97;5000407;28;20064;-72
2021/06/01 06:21:58;;;;;;;22.92;12.70;;;;;;;15.31;83.75;102105.47;5007148;28;20038;-75
2021/06/01 06:24:24;;;;;;;25.92;12.00;;;;;;;15.53;83.18;102103.44;5006127;28;20073;-74
2021/06/01 06:26:49;;;;;;;27.02;12.48;;;;;;;15.88;80.77;102102.72;5003192;28;20502;-73
2021/06/01 06:29:15;;;;;;;22.70;12.65;;;;;;;16.14;78.56;102113.44;5007123;28;20038;-72
2021/06/01 06:31:40;;;;;;;25.98;13.02;;;;;;;16.31;77.11;102102.97;5001073;28;20499;-73
2021/06/01 06:34:06;;;;;;;30.17;13.50;;;;;;;16.34;77.08;102108.00;5010062;28;20036;-73
2021/06/01 06:36:31;;;;;;;33.42;14.10;;;;;;;16.38;76.92;102104.06;5010151;28;20030;-73
2021/06/01 06:38:57;;;;;;;31.35;13.30;;;;;;;16.38;76.37;102112.00;5011027;28;20340;-73
2021/06/01 06:41:22;;;;;;;27.08;13.45;;;;;;;16.42;76.01;102112.53;5009060;28;20045;-74
2021/06/01 06:43:49;;;;;;;25.52;12.88;;;;;;;16.53;75.16;102102.53;5010164;28;20040;-74
2021/06/01 06:46:23;;;;;;;21.48;12.60;;;;;;;16.63;74.81;102101.59;4999768;28;20022;-75
2021/06/01 06:48:48;;;;;;;26.73;11.98;;;;;;;16.73;74.85;102095.25;5019884;28;20503;-75
2021/06/01 06:51:14;;;;;;;25.33;13.35;;;;;;;16.82;75.04;102097.94;5008358;28;20506;-74
2021/06/01 06:53:55;;;;;;;25.25;12.52;;;;;;;16.87;75.19;102098.34;5007511;28;20030;-75
2021/06/01 06:56:24;;;;;;;27.48;12.55;;;;;;;16.77;76.44;102100.25;5013709;28;20033;-73
2021/06/01 06:58:50;;;;;;;33.22;11.32;;;;;;;16.80;73.28;102102.56;5008669;28;20093;-74
2021/06/01 07:01:16;;;;;;;27.20;10.07;;;;;;;16.87;67.66;102104.47;4996614;28;20034;-75
2021/06/01 07:03:41;;;;;;;20.52;10.15;;;;;;;16.97;66.60;102099.09;5020962;28;20372;-75
2021/06/01 07:06:07;;;;;;;18.73;9.38;;;;;;;17.25;67.01;102098.91;5010118;28;20052;-74
2021/06/01 07:08:33;;;;;;;18.60;8.32;;;;;;;17.52;64.11;102105.84;5007599;28;20073;-75
2021/06/01 07:10:59;;;;;;;12.68;7.30;;;;;;;17.66;60.63;102107.88;5011595;28;20049;-75
2021/06/01 07:13:31;;;;;;;19.55;8.18;;;;;;;17.81;66.98;102099.31;5009397;28;20029;-75
2021/06/01 07:15:56;;;;;;;14.85;6.65;;;;;;;17.87;62.18;102096.88;4997322;28;20037;-73
2021/06/01 07:18:22;;;;;;;13.90;6.65;;;;;;;17.86;61.76;102099.72;5003824;28;20037;-75
2021/06/01 07:20:48;;;;;;;18.60;6.35;;;;;;;17.93;59.43;102103.34;4996523;28;20120;-74
2021/06/01 07:23:13;;;;;;;10.38;6.00;;;;;;;18.08;62.65;102100.91;5007479;28;20462;-74
2021/06/01 07:25:39;;;;;;;12.38;5.00;;;;;;;18.12;58.32;102101.41;5014480;28;20040;-74
2021/06/01 07:28:05;;;;;;;8.30;4.68;;;;;;;18.12;54.75;102102.25;5024576;28;20077;-74
2021/06/01 07:30:31;;;;;;;11.82;4.60;;;;;;;18.32;55.16;102099.28;5009396;28;20109;-74
2021/06/01 07:32:58;;;;;;;9.95;4.43;;;;;;;18.39;55.29;102101.13;5009304;28;20046;-75
2021/06/01 07:35:24;;;;;;;7.20;4.07;;;;;;;18.46;54.43;102107.44;5008688;28;20041;-74
2021/06/01 07:37:50;;;;;;;9.50;4.15;;;;;;;18.54;54.11;102095.16;5007944;28;20046;-75
2021/06/01 07:40:16;;;;;;;5.88;3.72;;;;;;;18.63;50.80;102102.13;5009940;28;20149;-74
2021/06/01 07:42:42;;;;;;;5.85;3.20;;;;;;;18.77;50.16;102101.44;5002958;28;20038;-75
2021/06/01 07:45:10;;;;;;;5.05;3.15;;;;;;;18.81;50.64;102096.66;4996188;28;20026;-74
2021/06/01 07:47:36;;;;;;;5.78;3.30;;;;;;;18.93;59.00;102091.81;5008466;28;20041;-74
2021/06/01 07:50:03;;;;;;;7.70;3.55;;;;;;;18.95;57.44;102098.66;5007527;28;20040;-75
2021/06/01 07:52:28;;;;;;;6.68;2.60;;;;;;;18.96;50.83;102097.63;5020022;28;20111;-75
2021/06/01 07:54:56;;;;;;;6.05;2.58;;;;;;;19.05;52.31;102087.81;5011173;28;20017;-75
2021/06/01 07:57:21;;;;;;;3.50;2.33;;;;;;;19.09;56.37;102088.31;5000034;28;20089;-75
2021/06/01 07:59:47;;;;;;;5.25;2.97;;;;;;;19.06;63.25;102090.31;5008177;28;20062;-75
2021/06/01 08:02:12;;;;;;;5.53;2.65;;;;;;;19.25;56.92;102088.28;5016809;28;20037;-74
2021/06/01 08:04:38;;;;;;;3.67;2.10;;;;;;;19.29;50.34;102088.72;5016686;28;20030;-73
2021/06/01 08:07:08;;;;;;;6.13;2.13;;;;;;;19.44;41.61;102079.06;5010407;28;20376;-72
2021/06/01 08:09:33;;;;;;;4.13;2.00;;;;;;;19.57;44.11;102086.47;5013081;28;20758;-75
2021/06/01 08:11:59;;;;;;;5.18;2.20;;;;;;;19.83;47.30;102083.53;5011088;28;20029;-76
2021/06/01 08:14:25;;;;;;;3.13;1.90;;;;;;;19.98;46.79;102081.78;5012862;28;20060;-77
2021/06/01 08:16:50;;;;;;;4.00;2.10;;;;;;;20.19;51.87;102085.63;5009436;28;20561;-75
2021/06/01 08:19:20;;;;;;;3.70;2.15;;;;;;;20.07;42.66;102079.06;5008902;28;20033;-74
2021/06/01 08:22:09;;;;;;;4.88;1.90;;;;;;;20.34;41.52;102075.03;5008193;28;20034;-74
2021/06/01 08:24:36;;;;;;;6.63;2.05;;;;;;;20.38;44.41;102081.66;5023965;28;20055;-75
2021/06/01 08:27:02;;;;;;;2.90;1.70;;;;;;;20.21;40.63;102086.28;5009132;28;20034;-75
2021/06/01 08:29:28;;;;;;;3.95;1.98;;;;;;;20.27;43.83;102077.59;5015590;28;20045;-76
2021/06/01 08:31:53;;;;;;;2.85;1.75;;;;;;;20.41;41.34;102066.13;5008540;28;20041;-75
2021/06/01 08:34:19;;;;;;;3.25;1.90;;;;;;;20.46;47.04;102075.47;5027004;28;20037;-75
2021/06/01 08:36:44;;;;;;;5.88;2.00;;;;;;;20.50;40.22;102066.91;5021657;28;20100;-75
2021/06/01 08:39:10;;;;;;;3.50;1.88;;;;;;;20.45;41.89;102068.47;5006625;28;20070;-75
2021/06/01 08:41:37;;;;;;;6.40;2.33;;;;;;;20.42;37.65;102061.66;5007105;28;20057;-75
2021/06/01 08:44:04;;;;;;;4.93;2.05;;;;;;;20.41;37.21;102060.00;5014776;28;20037;-75
2021/06/01 08:46:31;;;;;;;5.35;2.10;;;;;;;20.24;46.45;102061.97;5000190;28;20041;-75
2021/06/01 08:48:58;;;;;;;5.28;1.85;;;;;;;20.36;39.48;102057.88;5007820;28;20041;-75
2021/06/01 08:51:25;;;;;;;3.30;2.03;;;;;;;20.22;37.41;102053.31;5007501;28;20571;-75
2021/06/01 08:53:53;;;;;;;4.15;2.10;;;;;;;20.31;46.04;102052.25;5004991;28;20136;-75
2021/06/01 08:56:19;;;;;;;3.58;2.05;;;;;;;20.41;54.69;102052.81;5006364;28;20836;-76
2021/06/01 08:58:49;;;;;;;8.43;2.10;;;;;;;20.72;43.33;102046.59;5019593;28;20065;-75
2021/06/01 09:01:19;;;;;;;2.60;1.95;;;;;;;20.92;37.42;102041.53;4989361;28;20547;-75
2021/06/01 09:03:55;;;;;;;3.78;1.88;;;;;;;21.11;37.45;102052.66;5024765;28;20057;-75
2021/06/01 09:06:35;;;;;;;5.53;2.40;;;;;;;21.35;40.96;102049.69;4997538;28;20084;-75
2021/06/01 09:22:50;;;;;;;4.32;1.80;;;;;;;21.99;37.06;102036.66;5017102;28;20143;-75
2021/06/01 09:25:46;;;;;;;4.40;2.05;;;;;;;21.97;39.85;102039.53;5021679;28;20710;-75
2021/06/01 09:28:14;;;;;;;6.25;2.33;;;;;;;21.95;38.40;102037.03;5015804;28;20743;-76
2021/06/01 09:30:51;;;;;;;4.10;2.08;;;;;;;21.96;37.94;102030.69;5025866;28;20065;-76
2021/06/01 09:33:17;;;;;;;2.80;1.77;;;;;;;22.30;36.55;102021.16;5006880;28;20025;-77
2021/06/01 09:35:56;;;;;;;6.10;2.40;;;;;;;22.39;35.74;102026.34;5007872;28;20066;-75
2021/06/01 09:38:25;;;;;;;6.43;2.58;;;;;;;22.40;40.74;102017.31;4992657;28;20042;-75
2021/06/01 09:41:09;;;;;;;4.13;2.17;;;;;;;22.27;36.47;102029.53;5007707;28;20038;-75
2021/06/01 09:43:56;;;;;;;4.80;2.30;;;;;;;22.28;36.41;102017.84;5007312;28;20521;-75
2021/06/01 09:46:27;;;;;;;3.70;1.90;;;;;;;22.48;38.39;102019.84;5016394;28;20052;-76
2021/06/01 09:49:16;;;;;;;5.25;2.40;;;;;;;22.69;36.84;102021.63;5006754;28;20148;-77
2021/06/01 09:51:47;;;;;;;5.82;2.00;;;;;;;22.96;38.99;102021.75;4983972;28;20047;-76
2021/06/01 09:54:39;;;;;;;6.40;2.17;;;;;;;23.25;38.77;102020.72;5007616;28;20035;-77
2021/06/01 09:57:27;;;;;;;4.72;1.98;;;;;;;23.22;36.56;102016.56;5005216;28;20120;-74
2021/06/01 10:00:19;;;;;;;4.75;2.60;;;;;;;23.17;38.08;102019.03;5006021;28;20029;-75
2021/06/01 10:02:51;;;;;;;3.78;2.08;;;;;;;23.32;35.77;102014.34;5002283;28;20119;-76
2021/06/01 10:05:21;;;;;;;7.30;2.40;;;;;;;23.57;37.21;102016.47;4989234;28;20399;-76
2021/06/01 10:07:48;;;;;;;3.83;2.20;;;;;;;23.50;37.87;102013.78;5009278;28;20046;-75
2021/06/01 10:10:24;;;;;;;5.47;2.30;;;;;;;23.36;36.35;102009.44;5008791;28;20089;-74
2021/06/01 10:13:02;;;;;;;5.95;2.38;;;;;;;23.44;40.07;102011.91;4997942;28;20046;-75
2021/06/01 10:15:29;;;;;;;3.95;2.25;;;;;;;23.36;37.41;102005.91;4981825;28;20029;-77
2021/06/01 10:17:55;;;;;;;5.28;2.35;;;;;;;23.51;37.45;101996.69;5009076;28;20037;-77
2021/06/01 10:20:23;;;;;;;4.50;2.58;;;;;;;23.47;36.00;102006.16;4989970;28;20057;-76
2021/06/01 10:22:50;;;;;;;4.75;2.50;;;;;;;23.43;34.30;101994.22;4986632;28;20047;-76
2021/06/01 10:25:17;;;;;;;4.97;2.75;;;;;;;23.49;38.77;101995.25;5012261;28;20137;-76
2021/06/01 10:27:44;;;;;;;4.90;2.40;;;;;;;23.74;37.54;101992.81;4990331;28;20462;-76
2021/06/01 10:30:11;;;;;;;5.50;2.95;;;;;;;23.85;37.92;101988.75;5000534;28;20037;-77
2021/06/01 10:32:40;;;;;;;7.20;2.70;;;;;;;23.81;41.24;101998.22;4998060;28;20038;-76
2021/06/01 10:35:10;;;;;;;8.18;2.60;;;;;;;23.95;41.91;101989.16;5001891;28;20075;-75
2021/06/01 10:51:56;;;;;;;6.28;2.83;;;;;;;24.37;37.30;101976.34;5014964;28;20041;-74
2021/06/01 10:54:45;;;;;;;4.10;2.80;;;;;;;24.70;40.27;101963.97;5027820;28;20116;-75
2021/06/01 10:57:15;;;;;;;7.13;2.42;;;;;;;25.00;37.88;101966.94;5008073;28;20060;-76
2021/06/01 11:00:10;;;;;;;6.85;2.78;;;;;;;24.79;36.26;101965.34;4981699;28;20069;-76
2021/06/01 11:02:36;;;;;;;3.65;2.63;;;;;;;24.90;38.22;101971.91;5008781;28;20045;-76
2021/06/01 11:05:16;;;;;;;3.65;2.60;;;;;;;25.00;38.00;101965.06;5000299;28;20164;-76
2021/06/01 11:07:51;;;;;;;4.65;2.95;;;;;;;24.98;39.42;101964.47;4999450;28;20042;-75
2021/06/01 11:10:37;;;;;;;6.50;2.85;;;;;;;24.96;39.36;101968.38;5025006;28;20755;-75
2021/06/01 11:13:30;;;;;;;4.65;2.55;;;;;;;24.62;37.12;101956.94;5021759;28;20521;-77
2021/06/01 11:15:58;;;;;;;4.75;2.90;;;;;;;24.47;36.99;101955.31;5007753;28;20041;-74
2021/06/01 11:18:39;;;;;;;7.13;2.72;;;;;;;24.60;39.70;101951.81;4990736;28;20033;-75
2021/06/01 11:35:42;;;;;;;5.30;2.63;;;;;;;25.24;35.28;101942.06;5007949;28;20036;-77
2021/06/01 11:40:58;;;;;;;3.85;2.22;;;;;;;25.04;34.82;101935.94;5009602;28;20654;-77
2021/06/01 11:43:26;;;;;;;7.75;2.70;;;;;;;25.09;35.66;101920.03;4991684;28;20036;-77
2021/06/01 11:51:13;;;;;;;8.35;2.78;;;;;;;24.31;39.34;101917.41;5011214;28;20029;-75
2021/06/01 11:53:49;;;;;;;7.38;2.80;;;;;;;24.38;43.77;101926.25;5037304;28;20084;-76
2021/06/01 11:56:41;;;;;;;4.07;2.90;;;;;;;24.64;40.25;101912.78;5001893;28;20029;-77
2021/06/01 12:04:47;;;;;;;12.27;3.17;;;;;;;24.89;39.47;101924.66;4992678;28;20053;-76
2021/06/01 12:20:49;;;;;;;4.43;3.28;;;;;;;25.38;38.68;101896.34;4992910;28;20511;-76
2021/06/01 12:23:29;;;;;;;4.80;3.17;;;;;;;25.43;42.20;101897.31;5022429;28;20490;-76
2021/06/01 12:26:17;;;;;;;4.22;3.05;;;;;;;25.67;38.40;101885.97;5004448;28;20207;-76
2021/06/01 12:31:55;;;;;;;7.40;3.35;;;;;;;25.78;37.30;101890.63;5009314;28;20460;-77
2021/06/01 12:34:30;;;;;;;4.20;2.97;;;;;;;25.69;35.81;101876.66;5011950;28;20581;-77
2021/06/01 12:45:47;;;;;;;5.68;3.05;;;;;;;26.13;38.28;101882.06;5008579;28;20095;-75
2021/06/01 13:21:59;;;;;;;4.00;2.20;;;;;;;25.98;35.29;101836.75;4995827;28;20022;-74
2021/06/01 13:46:50;;;;;;;3.40;2.35;;;;;;;25.38;37.34;101821.13;4998340;28;20053;-78
2021/06/01 13:49:24;;;;;;;8.15;2.75;;;;;;;25.20;42.26;101817.31;5016112;28;20041;-73
2021/06/01 13:52:04;;;;;;;5.22;2.47;;;;;;;25.17;38.20;101809.69;4994730;28;20042;-76
2021/06/01 13:57:35;;;;;;;5.50;2.35;;;;;;;24.90;40.48;101813.59;5004496;28;20038;-73
2021/06/01 14:21:12;;;;;;;5.03;2.35;;;;;;;25.28;40.81;101797.47;5027918;28;20029;-78